createdAt,value
2019-05-23T00:01:17.310Z,28.47
2019-05-23T00:02:56.104Z,26.73
2019-05-23T00:04:44.184Z,26.33
2019-05-23T00:06:32.230Z,28.03
2019-05-23T00:08:10.684Z,27.33
2019-05-23T00:09:47.678Z,29.60
2019-05-23T00:11:30.427Z,29.57
2019-05-23T00:13:17.590Z,27.97
2019-05-23T00:15:01.739Z,28.30
2019-05-23T00:16:40.706Z,27.67
2019-05-23T00:18:21.207Z,30.27
2019-05-23T00:19:58.676Z,26.57
2019-05-23T00:21:38.188Z,29.60
2019-05-23T00:23:15.298Z,32.10
2019-05-23T00:24:53.781Z,30.90
2019-05-23T00:26:30.464Z,28.73
2019-05-23T00:28:09.826Z,29.83
2019-05-23T00:29:49.260Z,27.50
2019-05-23T00:31:30.439Z,27.47
2019-05-23T00:33:08.850Z,30.37
2019-05-23T00:34:45.692Z,28.83
2019-05-23T00:36:25.693Z,28.97
2019-05-23T00:38:04.612Z,29.30
2019-05-23T00:39:43.999Z,29.17
2019-05-23T00:41:22.513Z,29.17
2019-05-23T00:43:00.547Z,28.87
2019-05-23T00:44:38.144Z,30.87
2019-05-23T00:46:15.834Z,29.63
2019-05-23T00:47:53.117Z,29.83
2019-05-23T00:49:31.615Z,29.37
2019-05-23T00:51:09.854Z,29.07
2019-05-23T00:52:48.142Z,29.67
2019-05-23T00:54:24.964Z,29.43
2019-05-23T00:56:02.435Z,31.57
2019-05-23T00:57:41.745Z,28.03
2019-05-23T00:59:27.193Z,31.20
2019-05-23T01:00:59.086Z,31.27
2019-05-23T01:02:36.338Z,31.00
2019-05-23T01:04:13.363Z,27.17
2019-05-23T01:05:52.467Z,26.90
2019-05-23T01:07:30.490Z,31.97
2019-05-23T01:09:09.761Z,30.20
2019-05-23T01:10:48.170Z,29.47
2019-05-23T01:12:25.637Z,30.03
2019-05-23T01:14:02.924Z,32.30
2019-05-23T01:15:42.800Z,31.77
2019-05-23T01:17:22.754Z,34.70
2019-05-23T01:19:00.846Z,34.33
2019-05-23T01:20:44.246Z,31.03
2019-05-23T01:22:21.302Z,32.87
2019-05-23T01:24:03.135Z,31.93
2019-05-23T01:25:40.495Z,32.67
2019-05-23T01:27:18.759Z,32.23
2019-05-23T01:28:57.221Z,34.13
2019-05-23T01:30:52.153Z,34.60
2019-05-23T01:32:31.217Z,33.77
2019-05-23T01:34:09.971Z,37.43
2019-05-23T01:35:47.675Z,30.93
2019-05-23T01:37:24.475Z,32.77
2019-05-23T01:39:03.149Z,32.57
2019-05-23T01:40:41.482Z,33.27
2019-05-23T01:42:20.847Z,31.67
2019-05-23T01:43:58.118Z,31.77
2019-05-23T01:45:37.095Z,32.83
2019-05-23T01:47:15.606Z,32.43
2019-05-23T01:48:53.270Z,30.33
2019-05-23T01:50:30.510Z,31.23
2019-05-23T01:52:09.696Z,29.80
2019-05-23T01:53:47.194Z,31.60
2019-05-23T01:55:24.853Z,31.10
2019-05-23T01:57:02.304Z,29.33
2019-05-23T01:58:40.717Z,30.33
2019-05-23T02:00:20.599Z,30.57
2019-05-23T02:01:58.425Z,31.27
2019-05-23T02:03:36.055Z,31.97
2019-05-23T02:05:14.855Z,31.07
2019-05-23T02:06:51.922Z,31.77
2019-05-23T02:08:30.089Z,31.37
2019-05-23T02:10:11.090Z,33.30
2019-05-23T02:11:48.410Z,31.47
2019-05-23T02:13:25.171Z,33.67
2019-05-23T02:15:03.334Z,33.93
2019-05-23T02:16:41.227Z,30.07
2019-05-23T02:18:19.023Z,30.77
2019-05-23T02:19:56.407Z,29.87
2019-05-23T02:21:34.217Z,30.93
2019-05-23T02:23:12.906Z,31.63
2019-05-23T02:24:50.558Z,32.03
2019-05-23T02:26:29.063Z,34.13
2019-05-23T02:28:07.330Z,30.27
2019-05-23T02:29:44.847Z,31.83
2019-05-23T02:31:22.547Z,36.07
2019-05-23T02:32:59.353Z,37.50
2019-05-23T02:34:37.234Z,31.30
2019-05-23T02:36:14.934Z,31.37
2019-05-23T02:37:59.051Z,31.33
2019-05-23T02:39:54.618Z,30.47
2019-05-23T02:41:38.411Z,30.83
2019-05-23T02:43:16.509Z,30.43
2019-05-23T02:44:53.316Z,30.17
2019-05-23T02:46:32.137Z,29.53
2019-05-23T02:48:13.002Z,30.13
2019-05-23T02:49:51.687Z,29.57
2019-05-23T02:51:37.349Z,29.40
2019-05-23T02:53:17.777Z,30.77
2019-05-23T02:54:55.305Z,29.37
2019-05-23T02:56:36.119Z,30.50
2019-05-23T02:58:26.147Z,29.70
2019-05-23T03:00:07.209Z,31.43
2019-05-23T03:02:21.774Z,30.90
2019-05-23T03:04:05.246Z,31.37
2019-05-23T03:05:43.092Z,29.10
2019-05-23T03:07:25.026Z,29.80
2019-05-23T03:09:03.409Z,30.13
2019-05-23T03:11:17.610Z,31.23
2019-05-23T03:12:56.601Z,28.37
2019-05-23T03:14:35.724Z,31.23
2019-05-23T03:16:16.625Z,31.13
2019-05-23T03:17:56.655Z,29.10
2019-05-23T03:19:48.179Z,32.40
2019-05-23T03:21:27.924Z,32.00
2019-05-23T03:23:15.518Z,34.07
2019-05-23T03:24:52.862Z,32.93
2019-05-23T03:26:40.008Z,33.93
2019-05-23T03:28:19.373Z,32.47
2019-05-23T03:29:56.662Z,32.83
2019-05-23T03:31:33.524Z,32.67
2019-05-23T03:33:11.992Z,32.27
2019-05-23T03:34:50.082Z,34.93
2019-05-23T03:36:28.003Z,33.80
2019-05-23T03:38:05.897Z,35.03
2019-05-23T03:39:43.939Z,33.50
2019-05-23T03:41:22.105Z,39.67
2019-05-23T03:42:59.335Z,39.70
2019-05-23T03:44:36.599Z,37.40
2019-05-23T03:46:14.753Z,38.50
2019-05-23T03:47:54.098Z,40.53
2019-05-23T03:49:31.259Z,38.93
2019-05-23T03:51:11.028Z,40.77
2019-05-23T03:52:49.413Z,42.40
2019-05-23T03:54:28.579Z,46.83
2019-05-23T03:56:07.876Z,44.40
2019-05-23T03:57:46.219Z,45.20
2019-05-23T03:59:25.013Z,43.77
2019-05-23T04:01:04.889Z,43.53
2019-05-23T04:02:43.479Z,42.57
2019-05-23T04:04:20.685Z,40.80
2019-05-23T04:05:59.758Z,39.23
2019-05-23T04:07:38.852Z,38.47
2019-05-23T04:09:17.246Z,37.37
2019-05-23T04:10:55.421Z,38.33
2019-05-23T04:12:33.753Z,38.93
2019-05-23T04:14:10.737Z,38.73
2019-05-23T04:15:49.010Z,38.50
2019-05-23T04:17:25.924Z,35.33
2019-05-23T04:19:03.292Z,36.43
2019-05-23T04:20:40.208Z,38.17
2019-05-23T04:22:18.366Z,38.77
2019-05-23T04:23:56.043Z,38.70
2019-05-23T04:25:33.922Z,35.83
2019-05-23T04:27:10.589Z,36.93
2019-05-23T04:28:48.588Z,35.87
2019-05-23T04:30:25.329Z,34.10
2019-05-23T04:32:08.590Z,33.73
2019-05-23T04:33:42.754Z,32.67
2019-05-23T04:35:20.577Z,29.30
2019-05-23T04:36:57.590Z,31.33
2019-05-23T04:38:36.702Z,31.03
2019-05-23T04:40:14.746Z,31.00
2019-05-23T04:41:51.954Z,30.87
2019-05-23T04:43:28.781Z,28.73
2019-05-23T04:45:08.452Z,27.27
2019-05-23T04:46:45.376Z,29.17
2019-05-23T04:48:24.151Z,26.60
2019-05-23T04:50:00.842Z,26.23
2019-05-23T04:51:38.478Z,26.10
2019-05-23T04:53:16.016Z,24.87
2019-05-23T04:54:53.817Z,23.97
2019-05-23T04:56:30.809Z,23.30
2019-05-23T04:58:08.701Z,22.93
2019-05-23T04:59:45.526Z,22.60
2019-05-23T05:01:24.669Z,21.37
2019-05-23T05:03:02.201Z,22.43
2019-05-23T05:04:39.527Z,21.47
2019-05-23T05:06:16.125Z,20.83
2019-05-23T05:07:53.454Z,20.63
2019-05-23T05:09:32.547Z,19.60
2019-05-23T05:11:10.540Z,21.27
2019-05-23T05:12:47.921Z,21.43
2019-05-23T05:14:27.581Z,18.37
2019-05-23T05:16:04.891Z,20.00
2019-05-23T05:17:43.001Z,19.57
2019-05-23T05:19:20.708Z,20.80
2019-05-23T05:20:57.956Z,19.43
2019-05-23T05:22:36.373Z,18.67
2019-05-23T05:24:13.850Z,17.87
2019-05-23T05:25:50.358Z,19.10
2019-05-23T05:27:28.318Z,17.60
2019-05-23T05:29:05.394Z,16.93
2019-05-23T05:30:43.092Z,17.20
2019-05-23T05:32:20.785Z,16.33
2019-05-23T05:33:58.495Z,16.87
2019-05-23T05:35:35.893Z,17.10
2019-05-23T05:37:13.909Z,15.80
2019-05-23T05:38:50.559Z,16.33
2019-05-23T05:40:27.886Z,15.10
2019-05-23T05:42:05.671Z,15.50
2019-05-23T05:43:43.431Z,18.00
2019-05-23T05:45:20.573Z,14.50
2019-05-23T05:46:58.114Z,14.00
2019-05-23T05:48:35.205Z,14.03
2019-05-23T05:50:15.496Z,14.07
2019-05-23T05:51:52.613Z,12.27
2019-05-23T05:53:29.757Z,12.53
2019-05-23T05:55:08.771Z,11.67
2019-05-23T05:56:48.806Z,11.73
2019-05-23T05:58:25.369Z,11.20
2019-05-23T06:00:02.760Z,12.37
2019-05-23T06:01:40.567Z,12.17
2019-05-23T06:03:17.849Z,12.00
2019-05-23T06:04:54.429Z,11.97
2019-05-23T06:06:33.306Z,12.67
2019-05-23T06:08:11.781Z,13.73
2019-05-23T06:09:51.092Z,12.87
2019-05-23T06:11:28.444Z,13.83
2019-05-23T06:13:06.256Z,14.43
2019-05-23T06:14:46.494Z,13.87
2019-05-23T06:16:22.166Z,14.00
2019-05-23T06:18:00.083Z,15.03
2019-05-23T06:19:38.119Z,14.57
2019-05-23T06:21:16.796Z,14.77
2019-05-23T06:22:56.193Z,15.20
2019-05-23T06:24:44.653Z,14.97
2019-05-23T06:26:11.580Z,14.97
2019-05-23T06:27:48.426Z,15.47
2019-05-23T06:29:27.321Z,14.77
2019-05-23T06:31:04.429Z,14.73
2019-05-23T06:32:42.291Z,15.63
2019-05-23T06:34:20.063Z,17.53
2019-05-23T06:35:57.895Z,16.43
2019-05-23T06:37:34.834Z,16.30
2019-05-23T06:39:13.120Z,17.00
2019-05-23T06:40:51.660Z,17.70
2019-05-23T06:42:29.057Z,19.03
2019-05-23T06:44:08.455Z,18.67
2019-05-23T06:45:49.035Z,18.83
2019-05-23T06:47:27.021Z,17.87
2019-05-23T06:49:05.722Z,19.77
2019-05-23T06:50:42.191Z,20.53
2019-05-23T06:52:19.849Z,20.93
2019-05-23T06:53:58.969Z,21.07
2019-05-23T06:55:36.447Z,21.53
2019-05-23T06:57:13.811Z,21.57
2019-05-23T06:58:51.192Z,22.03
2019-05-23T07:00:29.450Z,20.80
2019-05-23T07:02:07.387Z,21.80
2019-05-23T07:03:44.284Z,21.53
2019-05-23T07:05:26.368Z,21.13
2019-05-23T07:07:05.237Z,22.33
2019-05-23T07:08:41.576Z,19.77
2019-05-23T07:10:19.356Z,19.07
2019-05-23T07:11:59.341Z,20.10
2019-05-23T07:13:36.786Z,20.87
2019-05-23T07:15:14.912Z,19.70
2019-05-23T07:16:53.070Z,21.30
2019-05-23T07:18:29.517Z,20.10
2019-05-23T07:20:10.973Z,21.17
2019-05-23T07:21:48.382Z,19.20
2019-05-23T07:23:25.051Z,19.73
2019-05-23T07:25:02.790Z,19.20
2019-05-23T07:26:39.797Z,19.57
2019-05-23T07:28:17.128Z,18.50
2019-05-23T07:29:53.729Z,19.53
2019-05-23T07:31:31.463Z,19.00
2019-05-23T07:33:09.827Z,18.80
2019-05-23T07:34:49.066Z,19.90
2019-05-23T07:36:25.777Z,19.80
2019-05-23T07:38:03.387Z,20.00
2019-05-23T07:39:40.307Z,20.43
2019-05-23T07:41:18.367Z,20.47
2019-05-23T07:42:55.290Z,20.27
2019-05-23T07:44:47.569Z,21.80
2019-05-23T07:46:13.049Z,20.87
2019-05-23T07:47:50.273Z,21.37
2019-05-23T07:49:26.996Z,22.80
2019-05-23T07:51:04.601Z,20.10
2019-05-23T07:52:41.990Z,21.30
2019-05-23T07:54:20.178Z,20.10
2019-05-23T07:56:02.173Z,19.53
2019-05-23T07:57:40.152Z,19.97
2019-05-23T07:59:17.517Z,21.93
2019-05-23T08:01:04.309Z,20.77
2019-05-23T08:02:44.570Z,21.20
2019-05-23T08:04:22.647Z,19.50
2019-05-23T08:06:00.697Z,21.60
2019-05-23T08:07:37.566Z,21.63
2019-05-23T08:09:15.644Z,23.97
2019-05-23T08:10:52.463Z,22.67
2019-05-23T08:12:30.451Z,22.90
2019-05-23T08:14:11.887Z,21.50
2019-05-23T08:15:47.425Z,19.37
2019-05-23T08:17:24.141Z,20.50
2019-05-23T08:19:01.664Z,21.13
2019-05-23T08:20:38.895Z,19.53
2019-05-23T08:22:16.587Z,18.20
2019-05-23T08:23:53.036Z,18.37
2019-05-23T08:25:30.638Z,16.53
2019-05-23T08:27:07.550Z,15.93
2019-05-23T08:29:11.313Z,17.13
2019-05-23T08:30:24.230Z,15.73
2019-05-23T08:32:01.090Z,15.47
2019-05-23T08:33:37.686Z,14.30
2019-05-23T08:35:17.674Z,12.37
2019-05-23T08:36:53.783Z,12.90
2019-05-23T08:38:31.322Z,13.23
2019-05-23T08:40:10.484Z,12.43
2019-05-23T08:41:47.581Z,12.70
2019-05-23T08:43:24.103Z,11.70
2019-05-23T08:45:02.868Z,11.30
2019-05-23T08:46:39.929Z,10.93
2019-05-23T08:48:17.336Z,10.70
2019-05-23T08:49:53.876Z,10.20
2019-05-23T08:51:31.335Z,11.17
2019-05-23T08:53:08.079Z,11.73
2019-05-23T08:54:46.562Z,10.97
2019-05-23T08:56:23.919Z,11.63
2019-05-23T08:58:01.734Z,10.27
2019-05-23T08:59:38.348Z,9.17
2019-05-23T09:01:16.172Z,8.30
2019-05-23T09:02:53.380Z,8.50
2019-05-23T09:04:31.749Z,8.50
2019-05-23T09:06:08.986Z,8.80
2019-05-23T09:07:46.272Z,7.37
2019-05-23T09:09:29.698Z,7.30
2019-05-23T09:11:02.535Z,7.70
2019-05-23T09:12:39.209Z,8.10
2019-05-23T09:14:16.528Z,8.60
2019-05-23T09:15:53.748Z,9.23
2019-05-23T09:17:31.280Z,8.73
2019-05-23T09:19:08.008Z,9.00
2019-05-23T09:20:45.442Z,10.53
2019-05-23T09:22:23.500Z,10.67
2019-05-23T09:24:01.253Z,9.47
2019-05-23T09:25:37.911Z,12.07
2019-05-23T09:27:15.672Z,11.03
2019-05-23T09:28:52.403Z,12.47
2019-05-23T09:30:30.748Z,12.30
2019-05-23T09:32:08.624Z,13.43
2019-05-23T09:33:45.849Z,12.73
2019-05-23T09:35:22.918Z,13.53
2019-05-23T09:37:00.691Z,14.47
2019-05-23T09:38:37.312Z,15.10
2019-05-23T09:40:16.564Z,15.20
2019-05-23T09:41:53.229Z,15.43
2019-05-23T09:43:31.613Z,16.27
2019-05-23T09:45:09.132Z,16.23
2019-05-23T09:46:46.625Z,16.97
2019-05-23T09:48:23.314Z,17.70
2019-05-23T09:50:01.139Z,16.87
2019-05-23T09:51:37.694Z,18.20
2019-05-23T09:53:15.191Z,18.10
2019-05-23T09:54:51.556Z,18.47
2019-05-23T09:56:29.283Z,17.77
2019-05-23T09:58:06.109Z,16.67
2019-05-23T09:59:43.258Z,18.03
2019-05-23T10:01:20.469Z,18.47
2019-05-23T10:02:58.317Z,16.57
2019-05-23T10:04:35.350Z,18.07
2019-05-23T10:06:12.764Z,18.47
2019-05-23T10:07:49.409Z,18.10
2019-05-23T10:09:27.498Z,17.60
2019-05-23T10:11:04.688Z,19.40
2019-05-23T10:12:42.085Z,18.07
2019-05-23T10:14:26.200Z,18.00
2019-05-23T10:16:04.476Z,18.80
2019-05-23T10:17:41.296Z,17.27
2019-05-23T10:19:18.582Z,17.47
2019-05-23T10:20:55.125Z,16.97
2019-05-23T10:22:32.277Z,17.40
2019-05-23T10:24:09.169Z,17.63
2019-05-23T10:25:47.056Z,19.30
2019-05-23T10:27:23.503Z,18.33
2019-05-23T10:29:00.963Z,17.30
2019-05-23T10:30:37.839Z,17.90
2019-05-23T10:32:15.340Z,17.20
2019-05-23T10:33:51.967Z,17.20
2019-05-23T10:35:29.759Z,17.73
2019-05-23T10:37:08.242Z,17.63
2019-05-23T10:38:45.731Z,18.87
2019-05-23T10:40:23.163Z,20.13
2019-05-23T10:42:01.170Z,21.57
2019-05-23T10:43:38.587Z,20.60
2019-05-23T10:45:16.110Z,22.67
2019-05-23T10:46:52.650Z,22.60
2019-05-23T10:48:31.136Z,21.53
2019-05-23T10:50:10.383Z,23.33
2019-05-23T10:51:47.854Z,24.53
2019-05-23T10:53:24.298Z,25.00
2019-05-23T10:55:01.795Z,24.47
2019-05-23T10:56:38.765Z,25.77
2019-05-23T10:58:17.950Z,25.80
2019-05-23T10:59:54.518Z,24.83
2019-05-23T11:01:31.899Z,25.93
2019-05-23T11:03:10.638Z,25.63
2019-05-23T11:04:48.158Z,25.63
2019-05-23T11:06:25.244Z,25.40
2019-05-23T11:08:03.735Z,23.70
2019-05-23T11:09:40.523Z,24.20
2019-05-23T11:11:18.334Z,23.20
2019-05-23T11:12:55.522Z,23.60
2019-05-23T11:14:33.380Z,23.67
2019-05-23T11:16:10.399Z,22.47
2019-05-23T11:17:47.606Z,22.83
2019-05-23T11:19:24.591Z,23.70
2019-05-23T11:21:01.878Z,24.30
2019-05-23T11:22:38.571Z,22.13
2019-05-23T11:24:15.863Z,23.03
2019-05-23T11:25:53.418Z,23.00
2019-05-23T11:27:31.509Z,24.60
2019-05-23T11:29:16.172Z,25.30
2019-05-23T11:30:50.141Z,21.93
2019-05-23T11:32:27.405Z,22.10
2019-05-23T11:34:04.132Z,22.10
2019-05-23T11:35:41.822Z,23.50
2019-05-23T11:37:18.395Z,25.97
2019-05-23T11:38:56.655Z,24.87
2019-05-23T11:40:33.835Z,27.60
2019-05-23T11:42:11.242Z,28.97
2019-05-23T11:43:48.036Z,30.20
2019-05-23T11:45:27.313Z,26.20
2019-05-23T11:47:05.387Z,25.43
2019-05-23T11:48:41.990Z,28.30
2019-05-23T11:50:19.328Z,27.40
2019-05-23T11:51:57.231Z,28.17
2019-05-23T11:53:35.526Z,29.73
2019-05-23T11:55:12.656Z,30.47
2019-05-23T11:56:49.979Z,30.23
2019-05-23T11:58:31.934Z,27.43
2019-05-23T12:00:09.335Z,28.63
2019-05-23T12:01:47.361Z,28.60
2019-05-23T12:03:24.588Z,29.67
2019-05-23T12:05:03.178Z,31.53
2019-05-23T12:06:54.375Z,29.77
2019-05-23T12:08:22.848Z,31.10
2019-05-23T12:10:00.837Z,34.97
2019-05-23T12:11:42.315Z,31.77
2019-05-23T12:13:16.368Z,32.60
2019-05-23T12:14:53.605Z,32.77
2019-05-23T12:16:30.940Z,32.80
2019-05-23T12:18:09.528Z,30.43
2019-05-23T12:19:47.056Z,31.00
2019-05-23T12:21:23.689Z,30.17
2019-05-23T12:23:01.505Z,30.83
2019-05-23T12:24:38.096Z,27.83
2019-05-23T12:26:15.373Z,27.70
2019-05-23T12:27:54.739Z,31.27
2019-05-23T12:29:31.977Z,31.83
2019-05-23T12:31:09.586Z,29.23
2019-05-23T12:32:47.917Z,30.43
2019-05-23T12:34:24.630Z,29.17
2019-05-23T12:36:03.278Z,27.50
2019-05-23T12:37:41.217Z,28.20
2019-05-23T12:39:18.775Z,27.00
2019-05-23T12:40:55.513Z,27.43
2019-05-23T12:42:32.854Z,28.67
2019-05-23T12:44:09.868Z,26.30
2019-05-23T12:45:47.091Z,27.73
2019-05-23T12:47:25.458Z,27.67
2019-05-23T12:49:06.523Z,27.53
2019-05-23T12:50:53.999Z,29.77
2019-05-23T12:52:29.782Z,28.83
2019-05-23T12:54:06.725Z,29.63
2019-05-23T12:55:44.190Z,28.03
2019-05-23T12:57:21.032Z,26.60
2019-05-23T12:58:58.400Z,27.90
2019-05-23T13:00:43.282Z,28.60
2019-05-23T13:02:22.078Z,26.90
2019-05-23T13:03:59.590Z,26.00
2019-05-23T13:05:37.447Z,27.13
2019-05-23T13:07:14.363Z,24.97
2019-05-23T13:08:51.831Z,26.53
2019-05-23T13:10:28.274Z,25.90
2019-05-23T13:12:06.054Z,26.27
2019-05-23T13:13:42.614Z,23.57
2019-05-23T13:15:22.055Z,22.63
2019-05-23T13:17:01.180Z,23.20
2019-05-23T13:18:37.979Z,22.83
2019-05-23T13:20:14.433Z,22.33
2019-05-23T13:21:51.863Z,21.07
2019-05-23T13:23:28.460Z,21.63
2019-05-23T13:25:08.752Z,22.07
2019-05-23T13:26:45.566Z,23.57
2019-05-23T13:28:23.118Z,21.53
2019-05-23T13:30:01.725Z,22.50
2019-05-23T13:31:39.129Z,22.90
2019-05-23T13:33:16.345Z,23.10
2019-05-23T13:34:53.658Z,26.20
2019-05-23T13:36:30.450Z,24.37
2019-05-23T13:38:08.912Z,26.40
2019-05-23T13:39:45.940Z,26.37
2019-05-23T13:41:24.350Z,29.17
2019-05-23T13:43:00.811Z,26.17
2019-05-23T13:44:38.435Z,26.80
2019-05-23T13:46:14.987Z,27.53
2019-05-23T13:47:53.333Z,28.30
2019-05-23T13:49:30.046Z,30.97
2019-05-23T13:51:08.837Z,28.70
2019-05-23T13:52:45.731Z,31.90
2019-05-23T13:54:23.583Z,30.80
2019-05-23T13:56:00.737Z,29.03
2019-05-23T13:57:38.735Z,29.83
2019-05-23T13:59:15.321Z,30.77
2019-05-23T14:00:52.816Z,29.87
2019-05-23T14:02:30.767Z,30.40
2019-05-23T14:04:08.454Z,29.13
2019-05-23T14:05:45.323Z,28.30
2019-05-23T14:07:22.605Z,27.83
2019-05-23T14:09:00.337Z,30.53
2019-05-23T14:10:38.279Z,28.93
2019-05-23T14:12:21.034Z,28.57
2019-05-23T14:14:01.251Z,31.90
2019-05-23T14:15:35.337Z,29.77
2019-05-23T14:17:13.600Z,29.17
2019-05-23T14:18:50.380Z,29.10
2019-05-23T14:20:27.970Z,29.43
2019-05-23T14:22:04.959Z,29.00
2019-05-23T14:23:42.248Z,28.40
2019-05-23T14:25:19.248Z,27.83
2019-05-23T14:26:57.694Z,29.17
2019-05-23T14:28:34.908Z,28.73
2019-05-23T14:30:29.333Z,31.03
2019-05-23T14:32:21.419Z,32.27
2019-05-23T14:34:05.995Z,29.00
2019-05-23T14:35:45.063Z,29.77
2019-05-23T14:37:23.415Z,30.43
2019-05-23T14:39:01.910Z,30.97
2019-05-23T14:40:38.801Z,31.40
2019-05-23T14:42:19.678Z,31.40
2019-05-23T14:43:55.815Z,29.80
2019-05-23T14:45:34.170Z,30.83
2019-05-23T14:47:30.445Z,29.10
2019-05-23T14:49:11.903Z,26.23
2019-05-23T14:50:54.278Z,28.47
2019-05-23T14:52:38.816Z,28.97
2019-05-23T14:54:23.843Z,30.27
2019-05-23T14:56:00.788Z,28.10
2019-05-23T14:57:38.872Z,29.37
2019-05-23T14:59:15.532Z,30.17
2019-05-23T15:00:53.755Z,29.33
2019-05-23T15:02:31.028Z,27.97
2019-05-23T15:04:08.649Z,28.63
2019-05-23T15:05:45.540Z,28.57
2019-05-23T15:07:23.267Z,29.60
2019-05-23T15:09:00.141Z,28.93
2019-05-23T15:10:37.807Z,30.13
2019-05-23T15:12:14.517Z,32.00
2019-05-23T15:13:52.910Z,33.27
2019-05-23T15:15:29.979Z,31.90
2019-05-23T15:17:07.937Z,34.17
2019-05-23T15:18:44.614Z,31.87
2019-05-23T15:20:21.949Z,32.00
2019-05-23T15:21:58.921Z,34.80
2019-05-23T15:23:36.402Z,34.63
2019-05-23T15:25:13.420Z,33.50
2019-05-23T15:26:51.364Z,35.90
2019-05-23T15:28:27.824Z,35.60
2019-05-23T15:30:07.200Z,35.27
2019-05-23T15:32:00.623Z,37.50
2019-05-23T15:33:22.923Z,37.10
2019-05-23T15:34:59.812Z,36.27
2019-05-23T15:36:38.142Z,37.03
2019-05-23T15:38:14.154Z,37.10
2019-05-23T15:39:51.550Z,36.17
2019-05-23T15:41:28.153Z,37.37
2019-05-23T15:43:09.494Z,36.77
2019-05-23T15:44:44.572Z,37.87
2019-05-23T15:46:21.864Z,37.63
2019-05-23T15:47:58.381Z,38.50
2019-05-23T15:49:37.473Z,40.70
2019-05-23T15:51:15.663Z,40.97
2019-05-23T15:52:52.253Z,38.53
2019-05-23T15:54:37.023Z,39.07
2019-05-23T15:56:31.168Z,40.30
2019-05-23T15:58:10.252Z,41.43
2019-05-23T15:59:51.190Z,41.20
2019-05-23T16:01:38.661Z,42.50
2019-05-23T16:03:26.112Z,41.80
2019-05-23T16:05:03.855Z,44.47
2019-05-23T16:06:41.263Z,41.10
2019-05-23T16:08:19.020Z,41.87
2019-05-23T16:09:55.515Z,42.07
2019-05-23T16:11:32.725Z,40.40
2019-05-23T16:13:09.279Z,41.03
2019-05-23T16:14:47.034Z,41.07
2019-05-23T16:16:24.083Z,41.23
2019-05-23T16:18:02.053Z,42.30
2019-05-23T16:19:38.727Z,42.80
2019-05-23T16:21:16.529Z,42.73
2019-05-23T16:22:53.098Z,43.47
2019-05-23T16:24:31.749Z,43.77
2019-05-23T16:26:11.629Z,43.67
2019-05-23T16:27:49.068Z,46.30
2019-05-23T16:29:27.542Z,43.57
2019-05-23T16:31:05.138Z,43.77
2019-05-23T16:32:41.527Z,46.33
2019-05-23T16:34:18.912Z,46.37
2019-05-23T16:35:56.488Z,47.27
2019-05-23T16:37:33.845Z,46.27
2019-05-23T16:39:10.538Z,46.30
2019-05-23T16:40:47.910Z,48.97
2019-05-23T16:42:24.627Z,47.27
2019-05-23T16:44:01.303Z,45.90
2019-05-23T16:45:39.156Z,46.00
2019-05-23T16:47:16.423Z,47.27
2019-05-23T16:48:53.396Z,46.83
2019-05-23T16:50:30.757Z,58.70
2019-05-23T16:52:07.390Z,47.37
2019-05-23T16:53:45.086Z,49.30
2019-05-23T16:55:26.289Z,86.70
2019-05-23T16:57:02.512Z,48.13
2019-05-23T16:58:46.486Z,50.33
2019-05-23T17:00:26.477Z,52.20
2019-05-23T17:02:06.980Z,54.53
2019-05-23T17:04:03.491Z,70.10
2019-05-23T17:05:47.572Z,63.53
2019-05-23T17:07:43.270Z,49.43
2019-05-23T17:09:31.339Z,48.03
2019-05-23T17:11:08.386Z,45.43
2019-05-23T17:12:44.736Z,45.00
2019-05-23T17:14:37.369Z,46.70
2019-05-23T17:16:15.573Z,61.60
2019-05-23T17:18:02.730Z,50.53
2019-05-23T17:19:45.899Z,114.33
2019-05-23T17:21:22.596Z,46.27
2019-05-23T17:23:17.296Z,50.03
2019-05-23T17:25:12.263Z,44.77
2019-05-23T17:26:48.751Z,61.00
2019-05-23T17:28:36.055Z,48.43
2019-05-23T17:30:24.455Z,56.93
2019-05-23T17:32:02.319Z,44.27
2019-05-23T17:33:39.365Z,43.30
2019-05-23T17:35:17.076Z,41.07
2019-05-23T17:36:53.538Z,49.83
2019-05-23T17:38:31.234Z,52.83
2019-05-23T17:40:24.229Z,44.47
2019-05-23T17:41:50.664Z,45.07
2019-05-23T17:43:27.248Z,51.10
2019-05-23T17:45:06.542Z,40.80
2019-05-23T17:46:44.370Z,40.73
2019-05-23T17:48:21.929Z,40.67
2019-05-23T17:49:58.799Z,41.93
2019-05-23T17:51:36.131Z,39.73
2019-05-23T17:53:12.644Z,38.73
2019-05-23T17:54:50.053Z,40.33
2019-05-23T17:56:29.642Z,43.00
2019-05-23T17:58:07.252Z,41.80
2019-05-23T17:59:44.784Z,44.93
2019-05-23T18:01:23.148Z,43.43
2019-05-23T18:03:00.429Z,45.90
2019-05-23T18:04:38.208Z,44.40
2019-05-23T18:06:15.000Z,43.93
2019-05-23T18:07:52.718Z,45.80
2019-05-23T18:09:33.803Z,45.03
2019-05-23T18:11:11.404Z,44.50
2019-05-23T18:12:48.333Z,43.67
2019-05-23T18:14:26.371Z,46.47
2019-05-23T18:16:04.017Z,43.47
2019-05-23T18:17:41.460Z,47.10
2019-05-23T18:19:18.944Z,47.10
2019-05-23T18:20:56.242Z,47.20
2019-05-23T18:22:35.601Z,47.47
2019-05-23T18:24:13.905Z,49.97
2019-05-23T18:25:50.806Z,48.37
2019-05-23T18:27:28.816Z,47.63
2019-05-23T18:29:06.057Z,50.20
2019-05-23T18:30:47.977Z,47.93
2019-05-23T18:32:26.199Z,48.33
2019-05-23T18:34:05.901Z,48.97
2019-05-23T18:35:43.267Z,48.73
2019-05-23T18:37:20.025Z,48.57
2019-05-23T18:38:59.169Z,50.23
2019-05-23T18:40:36.437Z,50.03
2019-05-23T18:42:14.011Z,52.23
2019-05-23T18:43:50.584Z,50.63
2019-05-23T18:45:28.226Z,49.90
2019-05-23T18:47:06.516Z,50.80
2019-05-23T18:48:43.751Z,48.13
2019-05-23T18:50:22.436Z,50.60
2019-05-23T18:51:59.734Z,55.60
2019-05-23T18:53:37.998Z,52.30
2019-05-23T18:55:15.853Z,54.83
2019-05-23T18:56:53.683Z,52.03
2019-05-23T18:58:31.017Z,54.23
2019-05-23T19:00:10.314Z,52.20
2019-05-23T19:01:47.534Z,55.13
2019-05-23T19:03:24.439Z,53.47
2019-05-23T19:05:02.470Z,56.13
2019-05-23T19:06:39.527Z,55.17
2019-05-23T19:08:17.305Z,58.87
2019-05-23T19:09:53.847Z,56.73
2019-05-23T19:11:31.375Z,59.10
2019-05-23T19:13:07.832Z,57.60
2019-05-23T19:14:45.394Z,58.03
2019-05-23T19:16:22.227Z,59.93
2019-05-23T19:17:59.938Z,58.77
2019-05-23T19:19:36.812Z,56.83
2019-05-23T19:21:15.908Z,61.30
2019-05-23T19:22:53.080Z,61.90
2019-05-23T19:24:31.918Z,62.17
2019-05-23T19:26:09.216Z,61.43
2019-05-23T19:27:47.048Z,62.63
2019-05-23T19:29:23.585Z,62.00
2019-05-23T19:31:01.603Z,65.87
2019-05-23T19:32:38.998Z,67.10
2019-05-23T19:34:16.757Z,62.40
2019-05-23T19:35:54.059Z,63.70
2019-05-23T19:37:31.815Z,62.60
2019-05-23T19:39:08.915Z,62.50
2019-05-23T19:40:48.135Z,65.70
2019-05-23T19:42:24.706Z,66.40
2019-05-23T19:44:03.192Z,60.60
2019-05-23T19:45:39.924Z,63.17
2019-05-23T19:47:18.222Z,64.07
2019-05-23T19:48:57.597Z,65.60
2019-05-23T19:50:34.908Z,62.90
2019-05-23T19:52:12.993Z,65.90
2019-05-23T19:53:50.977Z,68.87
2019-05-23T19:55:29.232Z,64.40
2019-05-23T19:57:06.631Z,63.60
2019-05-23T19:58:43.475Z,64.23
2019-05-23T20:00:22.869Z,62.33
2019-05-23T20:02:02.431Z,62.27
2019-05-23T20:03:39.809Z,61.90
2019-05-23T20:05:21.490Z,67.40
2019-05-23T20:06:59.468Z,62.37
2019-05-23T20:08:37.914Z,61.80
2019-05-23T20:10:18.598Z,63.07
2019-05-23T20:11:55.436Z,59.07
2019-05-23T20:13:32.443Z,56.93
2019-05-23T20:15:10.241Z,59.03
2019-05-23T20:16:48.343Z,57.33
2019-05-23T20:18:25.241Z,60.60
2019-05-23T20:20:03.237Z,59.47
2019-05-23T20:21:39.688Z,59.57
2019-05-23T20:23:17.607Z,57.30
2019-05-23T20:24:54.528Z,60.77
2019-05-23T20:26:32.183Z,59.53
2019-05-23T20:28:09.315Z,57.80
2019-05-23T20:29:46.782Z,57.53
2019-05-23T20:31:24.595Z,57.93
2019-05-23T20:33:03.389Z,63.23
2019-05-23T20:34:39.936Z,59.37
2019-05-23T20:36:18.105Z,59.13
2019-05-23T20:37:54.902Z,58.73
2019-05-23T20:39:32.859Z,58.67
2019-05-23T20:41:09.688Z,59.10
2019-05-23T20:42:47.453Z,59.53
2019-05-23T20:44:24.439Z,59.23
2019-05-23T20:46:01.809Z,59.90
2019-05-23T20:47:39.101Z,57.83
2019-05-23T20:49:16.511Z,64.43
2019-05-23T20:50:53.538Z,60.33
2019-05-23T20:52:31.141Z,65.27
2019-05-23T20:54:08.192Z,63.00
2019-05-23T20:55:46.687Z,69.70
2019-05-23T20:57:23.261Z,61.20
2019-05-23T20:59:01.145Z,64.83
2019-05-23T21:00:39.409Z,61.30
2019-05-23T21:02:17.009Z,65.17
2019-05-23T21:03:54.430Z,62.13
2019-05-23T21:05:31.822Z,62.77
2019-05-23T21:07:08.710Z,60.03
2019-05-23T21:08:46.855Z,61.57
2019-05-23T21:10:42.948Z,60.43